Time;durP1;ratioP1;P1;durP2;ratioP2;P2;SDS_P1;SDS_P2;PMS_P1;PMS_P2;Temp;Humidity;BMP_temperature;BMP_pressure;BME280_temperature;BME280_humidity;BME280_pressure;Samples;Min_cycle;Max_cycle;Signal;HPM_P1;HPM_P2
2021/07/25 00:01:30;;;;;;;1999.90;999.90;;;17.70;71.80;;;;;;5074363;28;20286;-77
2021/07/25 00:03:57;;;;;;;1999.90;999.90;;;17.60;72.00;;;;;;5074212;28;20482;-80
2021/07/25 00:06:22;;;;;;;1999.90;999.90;;;17.60;72.20;;;;;;5074097;28;20032;-78
2021/07/25 00:08:48;;;;;;;1999.90;999.90;;;17.50;72.40;;;;;;5074121;28;20039;-78
2021/07/25 00:11:15;;;;;;;1999.90;999.90;;;17.50;72.40;;;;;;5074158;28;20085;-80
2021/07/25 00:13:42;;;;;;;1999.90;999.90;;;17.50;72.40;;;;;;5074042;28;20043;-78
2021/07/25 00:16:10;;;;;;;1999.90;999.90;;;17.60;72.50;;;;;;5091008;28;20360;-81
2021/07/25 00:18:36;;;;;;;1999.90;999.90;;;17.50;72.60;;;;;;5090999;28;20028;-79
2021/07/25 00:21:02;;;;;;;1999.90;999.90;;;17.50;72.50;;;;;;5090815;28;20502;-79
2021/07/25 00:23:28;;;;;;;1999.90;999.90;;;17.50;72.50;;;;;;5073882;28;20066;-80
2021/07/25 00:25:56;;;;;;;1999.90;999.90;;;17.50;72.60;;;;;;5073796;28;20048;-78
2021/07/25 00:28:32;;;;;;;1999.90;999.90;;;17.50;72.60;;;;;;5090687;28;20021;-79
2021/07/25 00:31:01;;;;;;;1999.90;999.90;;;17.40;72.80;;;;;;5090944;28;20058;-79
2021/07/25 00:33:26;;;;;;;1999.90;999.90;;;17.40;72.80;;;;;;5090777;28;20031;-80
2021/07/25 00:35:53;;;;;;;1999.90;999.90;;;17.40;73.00;;;;;;5092046;28;20432;-81
2021/07/25 00:38:19;;;;;;;1999.90;999.90;;;17.40;73.10;;;;;;5074049;28;20032;-78
2021/07/25 00:40:45;;;;;;;1999.90;999.90;;;17.40;73.20;;;;;;5090646;28;20036;-79
2021/07/25 00:43:24;;;;;;;1999.90;999.90;;;17.40;73.30;;;;;;5090580;28;20028;-78
2021/07/25 00:45:50;;;;;;;1999.90;999.90;;;17.30;73.50;;;;;;5091887;28;20035;-80
2021/07/25 00:48:17;;;;;;;1999.90;999.90;;;17.30;73.40;;;;;;5090651;28;20032;-79
2021/07/25 00:50:43;;;;;;;1999.90;999.90;;;17.30;73.50;;;;;;5091764;28;20027;-80
2021/07/25 00:53:09;;;;;;;1999.90;999.90;;;17.30;73.60;;;;;;5073365;28;20028;-78
2021/07/25 00:55:35;;;;;;;1999.90;999.90;;;17.30;73.70;;;;;;5089961;28;20051;-80
2021/07/25 00:58:01;;;;;;;1999.90;999.90;;;17.30;73.90;;;;;;5090443;28;20036;-80
2021/07/25 01:00:27;;;;;;;1999.90;999.90;;;17.30;73.90;;;;;;5090336;28;20028;-77
2021/07/25 01:03:08;;;;;;;1999.90;999.90;;;17.30;74.00;;;;;;5090429;28;20470;-79
2021/07/25 01:05:42;;;;;;;1999.90;999.90;;;17.30;74.30;;;;;;5091908;28;20057;-79
2021/07/25 01:08:22;;;;;;;1999.90;999.90;;;17.30;74.30;;;;;;5091388;28;20106;-80
2021/07/25 01:10:49;;;;;;;1999.90;999.90;;;17.30;74.30;;;;;;5090509;28;20070;-78
2021/07/25 01:13:19;;;;;;;1999.90;999.90;;;17.30;74.10;;;;;;5091347;28;20050;-78
2021/07/25 01:15:46;;;;;;;1999.90;999.90;;;17.30;74.20;;;;;;5090070;28;20114;-78
2021/07/25 01:18:11;;;;;;;1999.90;999.90;;;17.30;74.20;;;;;;5090096;28;20036;-79
2021/07/25 01:20:37;;;;;;;1999.90;999.90;;;17.30;74.30;;;;;;5073231;28;20133;-79
2021/07/25 01:23:03;;;;;;;1999.90;999.90;;;17.20;74.40;;;;;;5073170;28;20124;-78
2021/07/25 01:25:29;;;;;;;1999.90;999.90;;;17.20;74.50;;;;;;5072921;28;20035;-80
2021/07/25 01:28:07;;;;;;;1999.90;999.90;;;17.10;74.60;;;;;;5089991;28;20032;-80
2021/07/25 01:30:37;;;;;;;1999.90;999.90;;;17.10;75.00;;;;;;5091118;28;20424;-78
2021/07/25 01:33:04;;;;;;;;;;;17.10;75.00;;;;;;5091645;28;20017;-77
2021/07/25 01:35:31;;;;;;;1999.90;999.90;;;17.10;74.70;;;;;;5089804;28;19998;-80
2021/07/25 01:37:57;;;;;;;1999.90;999.90;;;17.10;74.60;;;;;;5089837;28;20024;-78
2021/07/25 01:40:24;;;;;;;1999.90;999.90;;;17.10;74.70;;;;;;5056172;28;20031;-78
2021/07/25 01:42:55;;;;;;;1999.90;999.90;;;17.10;75.00;;;;;;5090842;28;20024;-79
2021/07/25 01:45:22;;;;;;;1999.90;999.90;;;17.00;75.10;;;;;;5089484;28;20044;-81
2021/07/25 01:47:47;;;;;;;1999.90;999.90;;;17.00;75.20;;;;;;5089571;28;20025;-78
2021/07/25 01:50:14;;;;;;;1999.90;999.90;;;17.00;75.20;;;;;;5089342;28;20115;-78
2021/07/25 01:52:40;;;;;;;1999.90;999.90;;;17.00;75.40;;;;;;5089333;28;20052;-80
2021/07/25 01:55:06;;;;;;;1999.90;999.90;;;17.00;75.40;;;;;;5089317;28;20453;-80
2021/07/25 01:57:32;;;;;;;1999.90;999.90;;;17.00;75.50;;;;;;5072364;28;20462;-80
2021/07/25 01:59:58;;;;;;;1999.90;999.90;;;17.00;75.60;;;;;;5089219;28;20046;-80
2021/07/25 02:02:24;;;;;;;1999.90;999.90;;;17.00;75.70;;;;;;5089052;28;20029;-79
2021/07/25 02:04:50;;;;;;;1999.90;999.90;;;17.00;75.80;;;;;;5090417;28;20030;-79
2021/07/25 02:07:16;;;;;;;1999.90;999.90;;;17.00;75.90;;;;;;5089184;28;20020;-80
2021/07/25 02:09:42;;;;;;;1999.90;999.90;;;16.90;75.90;;;;;;5076151;28;20448;-80
2021/07/25 02:12:10;;;;;;;1999.90;999.90;;;16.90;76.00;;;;;;5094587;28;20073;-80
2021/07/25 02:14:37;;;;;;;1999.90;999.90;;;16.80;76.20;;;;;;5076554;28;20052;-79
2021/07/25 02:17:04;;;;;;;1999.90;999.90;;;16.80;76.30;;;;;;5059882;28;20035;-79
2021/07/25 02:19:30;;;;;;;1999.90;999.90;;;16.80;76.60;;;;;;5093370;28;20054;-78
2021/07/25 02:21:56;;;;;;;1999.90;999.90;;;16.80;76.60;;;;;;5076230;28;20028;-81
2021/07/25 02:24:22;;;;;;;1999.90;999.90;;;16.80;76.60;;;;;;5093293;28;20032;-80
2021/07/25 02:26:49;;;;;;;1999.90;999.90;;;16.80;76.80;;;;;;5094084;28;20063;-79
2021/07/25 02:29:15;;;;;;;1999.90;999.90;;;16.70;76.80;;;;;;5092959;28;20497;-80
2021/07/25 02:31:41;;;;;;;1999.90;999.90;;;16.70;76.90;;;;;;5094218;28;20077;-79
2021/07/25 02:34:07;;;;;;;1999.90;999.90;;;16.70;77.00;;;;;;5094402;28;20416;-82
2021/07/25 02:36:33;;;;;;;1999.90;999.90;;;16.60;77.10;;;;;;5092999;28;20107;-80
2021/07/25 02:38:58;;;;;;;1999.90;999.90;;;16.60;77.30;;;;;;5092982;28;20055;-80
2021/07/25 02:41:24;;;;;;;1999.90;999.90;;;16.70;77.40;;;;;;5092861;28;20028;-78
2021/07/25 02:43:50;;;;;;;1999.90;999.90;;;16.70;77.50;;;;;;5075805;28;20056;-80
2021/07/25 02:46:15;;;;;;;1999.90;999.90;;;16.70;77.50;;;;;;5075930;28;20031;-80
2021/07/25 02:48:42;;;;;;;1999.90;999.90;;;16.70;77.60;;;;;;5094073;28;20071;-81
2021/07/25 02:51:07;;;;;;;1999.90;999.90;;;16.70;77.60;;;;;;5094013;28;20074;-80
2021/07/25 02:53:33;;;;;;;1999.90;999.90;;;16.70;77.60;;;;;;5093904;28;20049;-78
2021/07/25 02:55:59;;;;;;;1999.90;999.90;;;16.70;77.60;;;;;;5094206;28;20493;-80
2021/07/25 02:58:25;;;;;;;1999.90;999.90;;;16.70;77.60;;;;;;5093739;28;20028;-81
2021/07/25 03:00:51;;;;;;;1999.90;999.90;;;16.70;77.70;;;;;;5058895;28;20329;-79
2021/07/25 03:03:16;;;;;;;1999.90;999.90;;;16.60;77.70;;;;;;5092362;28;20042;-80
2021/07/25 03:05:42;;;;;;;1999.90;999.90;;;16.60;77.80;;;;;;5058780;28;20043;-78
2021/07/25 03:08:08;;;;;;;1999.90;999.90;;;16.60;77.90;;;;;;5075374;28;20359;-79
2021/07/25 03:10:33;;;;;;;1999.90;999.90;;;16.60;77.90;;;;;;5075176;28;20078;-79
2021/07/25 03:12:59;;;;;;;1999.90;999.90;;;16.60;78.10;;;;;;5093741;28;20031;-80
2021/07/25 03:15:25;;;;;;;1999.90;999.90;;;16.60;78.20;;;;;;5091858;28;20494;-78
2021/07/25 03:17:52;;;;;;;1999.90;999.90;;;16.60;78.20;;;;;;5092120;28;20032;-79
2021/07/25 03:20:18;;;;;;;1999.90;999.90;;;16.60;78.30;;;;;;5074896;28;20047;-80
2021/07/25 03:22:44;;;;;;;1999.90;999.90;;;16.60;78.40;;;;;;5092009;28;20058;-80
2021/07/25 03:25:11;;;;;;;1999.90;999.90;;;16.60;78.50;;;;;;5091968;28;20024;-80
2021/07/25 03:27:37;;;;;;;1999.90;999.90;;;16.60;78.70;;;;;;5058480;28;20055;-81
2021/07/25 03:30:04;;;;;;;1999.90;999.90;;;16.60;78.80;;;;;;5091847;28;20032;-80
2021/07/25 03:32:30;;;;;;;1999.90;999.90;;;16.60;78.80;;;;;;5091749;28;20028;-78
2021/07/25 03:34:55;;;;;;;1999.90;999.90;;;16.60;78.90;;;;;;5058233;28;20024;-80
2021/07/25 03:37:21;;;;;;;1999.90;999.90;;;16.60;78.90;;;;;;5091741;28;20035;-78
2021/07/25 03:39:49;;;;;;;1999.90;999.90;;;16.60;79.00;;;;;;5091803;28;20035;-81
2021/07/25 03:42:15;;;;;;;1999.90;999.90;;;16.60;79.10;;;;;;5092937;28;20028;-81
2021/07/25 03:44:41;;;;;;;1999.90;999.90;;;16.50;79.00;;;;;;5058272;28;20027;-80
2021/07/25 03:47:08;;;;;;;1999.90;999.90;;;16.50;79.10;;;;;;5092935;28;20055;-81
2021/07/25 03:49:34;;;;;;;1999.90;999.90;;;16.50;79.10;;;;;;5092862;28;20032;-79
2021/07/25 03:52:00;;;;;;;1999.90;999.90;;;16.50;79.10;;;;;;5092673;28;20069;-81
2021/07/25 03:54:25;;;;;;;1999.90;999.90;;;16.50;79.20;;;;;;5091310;28;20024;-81
2021/07/25 03:56:51;;;;;;;1999.90;999.90;;;16.50;79.20;;;;;;5057900;28;20441;-80
2021/07/25 03:59:17;;;;;;;1999.90;999.90;;;16.40;79.20;;;;;;5092633;28;20089;-80
2021/07/25 04:01:43;;;;;;;1999.90;999.90;;;16.40;79.30;;;;;;5091108;28;20028;-81
2021/07/25 04:04:09;;;;;;;1999.90;999.90;;;16.40;79.30;;;;;;5091215;28;20429;-81
2021/07/25 04:06:34;;;;;;;1999.90;999.90;;;16.40;79.30;;;;;;5074616;28;20031;-81
2021/07/25 04:09:00;;;;;;;1999.90;999.90;;;16.40;79.30;;;;;;5074362;28;20032;-81
2021/07/25 04:11:26;;;;;;;1999.90;999.90;;;16.30;79.50;;;;;;5091399;28;20028;-79
2021/07/25 04:13:52;;;;;;;1999.90;999.90;;;16.30;79.50;;;;;;5091143;28;20462;-79
2021/07/25 04:16:18;;;;;;;1999.90;999.90;;;16.30;79.50;;;;;;5091015;28;20040;-80
2021/07/25 04:18:43;;;;;;;1999.90;999.90;;;16.30;79.40;;;;;;5090986;28;20547;-80
2021/07/25 04:21:09;;;;;;;1999.90;999.90;;;16.30;79.30;;;;;;5074176;28;20036;-79
2021/07/25 04:23:39;;;;;;;1999.90;999.90;;;16.30;79.20;;;;;;5073929;28;20032;-78
2021/07/25 04:26:05;;;;;;;1999.90;999.90;;;16.30;79.30;;;;;;5090537;28;20442;-80
2021/07/25 04:28:30;;;;;;;1999.90;999.90;;;16.20;79.20;;;;;;5091000;28;20212;-81
2021/07/25 04:30:56;;;;;;;1999.90;999.90;;;16.20;79.30;;;;;;5091431;28;20016;-79
2021/07/25 04:33:22;;;;;;;1999.90;999.90;;;16.20;79.30;;;;;;5090513;28;20055;-80
2021/07/25 04:35:48;;;;;;;1999.90;999.90;;;16.20;79.30;;;;;;5090428;28;20081;-81
2021/07/25 04:38:15;;;;;;;1999.90;999.90;;;16.10;79.30;;;;;;5056811;28;20032;-79
2021/07/25 04:40:44;;;;;;;1999.90;999.90;;;16.10;79.20;;;;;;5090344;28;20035;-81
2021/07/25 04:43:16;;;;;;;1999.90;999.90;;;16.00;79.30;;;;;;5091658;28;20119;-81
2021/07/25 04:45:47;;;;;;;1999.90;999.90;;;16.00;79.20;;;;;;5091550;28;20028;-81
2021/07/25 04:48:31;;;;;;;1999.90;999.90;;;16.00;79.30;;;;;;5091699;28;20082;-80
2021/07/25 04:51:05;;;;;;;1999.90;999.90;;;15.90;79.20;;;;;;5090249;28;20032;-80
2021/07/25 04:53:38;;;;;;;1999.90;999.90;;;15.90;79.20;;;;;;5091507;28;20211;-79
2021/07/25 04:56:10;;;;;;;1999.90;999.90;;;15.80;79.40;;;;;;5090458;28;20032;-80
2021/07/25 04:58:43;;;;;;;1999.90;999.90;;;15.90;79.60;;;;;;5091640;28;20046;-81
2021/07/25 05:01:14;;;;;;;1999.90;999.90;;;15.90;79.60;;;;;;5090297;28;20021;-80
2021/07/25 05:03:40;;;;;;;1999.90;999.90;;;15.90;79.50;;;;;;5090280;28;20040;-81
2021/07/25 05:06:10;;;;;;;1999.90;999.90;;;15.90;79.50;;;;;;5090177;28;20055;-81
2021/07/25 05:08:37;;;;;;;1999.90;999.90;;;15.90;79.60;;;;;;5073269;28;20074;-80
2021/07/25 05:11:19;;;;;;;1999.90;999.90;;;15.90;79.60;;;;;;5091378;28;20093;-80
2021/07/25 05:13:50;;;;;;;1999.90;999.90;;;16.00;79.60;;;;;;5091493;28;20038;-80
2021/07/25 05:16:43;;;;;;;1999.90;999.90;;;16.10;79.50;;;;;;5089979;28;20020;-80
2021/07/25 05:19:54;;;;;;;1999.90;999.90;;;16.10;79.40;;;;;;5090026;28;20035;-81
2021/07/25 05:22:19;;;;;;;1999.90;999.90;;;16.10;79.20;;;;;;5089870;28;20028;-81
2021/07/25 05:24:46;;;;;;;1999.90;999.90;;;16.10;78.90;;;;;;5089907;28;20028;-79
2021/07/25 05:27:21;;;;;;;1999.90;999.90;;;16.10;79.20;;;;;;5056190;28;20052;-81
2021/07/25 05:29:48;;;;;;;1999.90;999.90;;;16.10;79.50;;;;;;5089794;28;20078;-79
2021/07/25 05:32:15;;;;;;;1999.90;999.90;;;16.20;79.60;;;;;;5073080;28;20028;-78
2021/07/25 05:34:41;;;;;;;1999.90;999.90;;;16.20;79.60;;;;;;5072806;28;20025;-80
2021/07/25 05:37:07;;;;;;;1999.90;999.90;;;16.20;79.50;;;;;;5089820;28;20116;-81
2021/07/25 05:39:32;;;;;;;1999.90;999.90;;;16.30;79.40;;;;;;5089957;28;20107;-81
2021/07/25 05:41:58;;;;;;;1999.90;999.90;;;16.30;79.40;;;;;;5074084;28;20039;-79
2021/07/25 05:44:24;;;;;;;1999.90;999.90;;;16.30;79.50;;;;;;5095265;28;20446;-80
2021/07/25 05:46:50;;;;;;;1999.90;999.90;;;16.40;79.70;;;;;;5093818;28;20124;-80
2021/07/25 05:49:15;;;;;;;1999.90;999.90;;;16.40;79.60;;;;;;5077008;28;20098;-80
2021/07/25 05:51:41;;;;;;;1999.90;999.90;;;16.50;79.50;;;;;;5093870;28;20070;-81
2021/07/25 05:54:07;;;;;;;1999.90;999.90;;;16.50;79.50;;;;;;5060226;28;20024;-80
2021/07/25 05:56:33;;;;;;;1999.90;999.90;;;16.50;79.60;;;;;;5093657;28;20494;-82
2021/07/25 05:58:58;;;;;;;1999.90;999.90;;;16.60;79.60;;;;;;5093662;28;20061;-80
2021/07/25 06:01:24;;;;;;;1999.90;999.90;;;16.70;79.60;;;;;;5094892;28;20036;-80
2021/07/25 06:03:49;;;;;;;1999.90;999.90;;;16.70;79.60;;;;;;5093616;28;20039;-80
2021/07/25 06:06:15;;;;;;;1999.90;999.90;;;16.70;79.70;;;;;;5093579;28;20047;-79
2021/07/25 06:08:41;;;;;;;1999.90;999.90;;;16.80;79.60;;;;;;5093539;28;20028;-80
2021/07/25 06:11:07;;;;;;;1999.90;999.90;;;16.90;79.50;;;;;;5093237;28;20124;-81
2021/07/25 06:13:33;;;;;;;1999.90;999.90;;;17.00;79.40;;;;;;5093122;28;20024;-80
2021/07/25 06:15:59;;;;;;;1999.90;999.90;;;17.00;79.20;;;;;;5092804;28;20036;-80
2021/07/25 06:18:24;;;;;;;1999.90;999.90;;;17.10;79.20;;;;;;5092892;28;20071;-79
2021/07/25 06:20:50;;;;;;;1999.90;999.90;;;17.10;79.30;;;;;;5093219;28;20028;-81
2021/07/25 06:23:16;;;;;;;1999.90;999.90;;;17.20;79.20;;;;;;5076237;28;20035;-80
2021/07/25 06:25:42;;;;;;;1999.90;999.90;;;17.30;79.10;;;;;;5093083;28;20549;-79
2021/07/25 06:28:08;;;;;;;1999.90;999.90;;;17.40;78.80;;;;;;5094593;28;20032;-81
2021/07/25 06:30:34;;;;;;;1999.90;999.90;;;17.50;78.70;;;;;;5076329;28;20438;-80
2021/07/25 06:33:07;;;;;;;1999.90;999.90;;;17.60;78.60;;;;;;5093039;28;20027;-80
2021/07/25 06:35:41;;;;;;;1999.90;999.90;;;17.70;78.60;;;;;;5076377;28;20031;-81
2021/07/25 06:38:15;;;;;;;1999.90;999.90;;;18.00;78.50;;;;;;5093006;28;20031;-80
2021/07/25 06:40:43;;;;;;;1999.90;999.90;;;18.30;78.10;;;;;;5092895;28;20027;-79
2021/07/25 06:43:10;;;;;;;1999.90;999.90;;;18.70;77.80;;;;;;5092830;28;20031;-79
2021/07/25 06:45:35;;;;;;;1999.90;999.90;;;19.20;77.50;;;;;;5092916;28;20032;-81
2021/07/25 06:48:01;;;;;;;1999.90;999.90;;;19.90;77.00;;;;;;5092768;28;20032;-77
2021/07/25 06:50:29;;;;;;;1999.90;999.90;;;20.90;75.90;;;;;;5093974;28;20073;-78
2021/07/25 06:52:56;;;;;;;1999.90;999.90;;;21.70;73.90;;;;;;5092550;28;20063;-77
2021/07/25 06:55:27;;;;;;;1999.90;999.90;;;22.20;72.20;;;;;;5091969;28;20398;-77
2021/07/25 06:57:53;;;;;;;1999.90;999.90;;;22.20;70.80;;;;;;5093881;28;20375;-81
2021/07/25 07:00:19;;;;;;;1999.90;999.90;;;22.00;70.60;;;;;;5093797;28;20455;-79
2021/07/25 07:02:45;;;;;;;1999.90;999.90;;;21.80;70.60;;;;;;5075473;28;20035;-80
2021/07/25 07:05:11;;;;;;;1999.90;999.90;;;21.50;70.90;;;;;;5092678;28;20028;-81
2021/07/25 07:07:37;;;;;;;1999.90;999.90;;;21.20;71.30;;;;;;5075554;28;20473;-80
2021/07/25 07:10:03;;;;;;;1999.90;999.90;;;20.90;71.80;;;;;;5058834;28;20032;-77
2021/07/25 07:12:28;;;;;;;1999.90;999.90;;;20.80;72.20;;;;;;5092239;28;20107;-81
2021/07/25 07:14:54;;;;;;;1999.90;999.90;;;20.70;72.60;;;;;;5075301;28;20039;-81
2021/07/25 07:17:22;;;;;;;1999.90;999.90;;;20.80;72.70;;;;;;5092315;28;20106;-79
2021/07/25 07:19:48;;;;;;;1999.90;999.90;;;20.80;73.00;;;;;;5092151;28;20017;-79
2021/07/25 07:22:29;;;;;;;1999.90;999.90;;;21.40;74.30;;;;;;5058481;28;20443;-78
2021/07/25 07:24:56;;;;;;;1999.90;999.90;;;22.80;74.10;;;;;;5093802;28;20020;-78
2021/07/25 07:27:23;;;;;;;1999.90;999.90;;;24.50;72.40;;;;;;5092811;28;20459;-79
2021/07/25 07:29:50;;;;;;;1999.90;999.90;;;26.20;70.20;;;;;;5093148;28;20051;-77
2021/07/25 07:32:16;;;;;;;1999.90;999.90;;;27.60;67.40;;;;;;5093082;28;20383;-78
2021/07/25 07:34:42;;;;;;;1999.90;999.90;;;28.90;65.50;;;;;;5091889;28;20032;-79
2021/07/25 07:37:08;;;;;;;1999.90;999.90;;;29.90;63.50;;;;;;5093164;28;20103;-79
2021/07/25 07:39:36;;;;;;;1999.90;999.90;;;30.80;61.70;;;;;;5093501;28;20420;-79
2021/07/25 07:42:02;;;;;;;1999.90;999.90;;;31.60;60.00;;;;;;5092859;28;20510;-77
2021/07/25 07:44:28;;;;;;;1999.90;999.90;;;32.10;58.60;;;;;;5091740;28;20043;-78
2021/07/25 07:46:53;;;;;;;1999.90;999.90;;;32.30;57.50;;;;;;5074617;28;20032;-79
2021/07/25 07:49:19;;;;;;;1999.90;999.90;;;32.20;56.80;;;;;;5091356;28;20482;-80
2021/07/25 07:51:45;;;;;;;1999.90;999.90;;;32.30;56.30;;;;;;5092794;28;20557;-79
2021/07/25 07:54:10;;;;;;;1999.90;999.90;;;32.40;55.80;;;;;;5074514;28;20490;-78
2021/07/25 07:56:36;;;;;;;1999.90;999.90;;;32.50;55.30;;;;;;5091540;28;20021;-79
2021/07/25 07:59:02;;;;;;;1999.90;999.90;;;32.80;54.90;;;;;;5074448;28;20042;-78
2021/07/25 08:01:28;;;;;;;1999.90;999.90;;;33.30;54.30;;;;;;5090832;28;20063;-79
2021/07/25 08:03:54;;;;;;;1999.90;999.90;;;33.80;53.60;;;;;;5091051;28;20048;-77
2021/07/25 08:06:20;;;;;;;1999.90;999.90;;;34.10;52.90;;;;;;5090188;28;20402;-80
2021/07/25 08:08:45;;;;;;;1999.90;999.90;;;34.20;52.20;;;;;;5092512;28;20032;-77
2021/07/25 08:11:11;;;;;;;1999.90;999.90;;;34.10;51.70;;;;;;5092325;28;20099;-78
2021/07/25 08:13:37;;;;;;;1999.90;999.90;;;33.80;51.70;;;;;;5091054;28;20039;-79
2021/07/25 08:16:03;;;;;;;1999.90;999.90;;;33.90;51.70;;;;;;5074002;28;20024;-79
2021/07/25 08:18:28;;;;;;;1999.90;999.90;;;34.30;51.30;;;;;;5091913;28;20085;-79
2021/07/25 08:20:54;;;;;;;1999.90;999.90;;;34.90;51.10;;;;;;5092173;28;20028;-78
2021/07/25 08:23:20;;;;;;;1999.90;999.90;;;35.70;50.70;;;;;;5090824;28;20118;-78
2021/07/25 08:25:45;;;;;;;1999.90;999.90;;;36.20;50.00;;;;;;5073841;28;20024;-79
2021/07/25 08:28:11;;;;;;;1999.90;999.90;;;36.60;49.50;;;;;;5090714;28;20081;-79
2021/07/25 08:30:37;;;;;;;1999.90;999.90;;;36.80;48.70;;;;;;5090799;28;20020;-79
2021/07/25 08:33:03;;;;;;;1999.90;999.90;;;36.80;48.20;;;;;;5092120;28;20043;-79
2021/07/25 08:35:28;;;;;;;1999.90;999.90;;;36.40;47.70;;;;;;5090572;28;20032;-77
2021/07/25 08:37:54;;;;;;;1999.90;999.90;;;35.90;47.90;;;;;;5090547;28;20053;-79
2021/07/25 08:40:24;;;;;;;1999.90;999.90;;;35.90;48.40;;;;;;5090332;28;20036;-79
2021/07/25 08:43:17;;;;;;;1999.90;999.90;;;36.30;48.40;;;;;;5090558;28;20019;-79
2021/07/25 08:45:44;;;;;;;1999.90;999.90;;;37.00;48.30;;;;;;5089284;28;20501;-79
2021/07/25 08:48:17;;;;;;;1999.90;999.90;;;37.60;48.00;;;;;;5090453;28;20076;-77
2021/07/25 08:51:02;;;;;;;1999.90;999.90;;;37.90;47.10;;;;;;5091550;28;20016;-77
2021/07/25 08:53:33;;;;;;;1999.90;999.90;;;38.30;46.90;;;;;;5090130;28;20020;-80
2021/07/25 08:55:59;;;;;;;1999.90;999.90;;;39.00;46.70;;;;;;5089731;28;20077;-79
2021/07/25 08:58:28;;;;;;;1999.90;999.90;;;39.50;46.20;;;;;;5091363;28;20027;-78
2021/07/25 09:00:55;;;;;;;1999.90;999.90;;;39.80;45.60;;;;;;5090006;28;20404;-78
2021/07/25 09:03:23;;;;;;;1999.90;999.90;;;40.10;45.40;;;;;;5091272;28;20138;-77
2021/07/25 09:05:50;;;;;;;1999.90;999.90;;;40.30;44.90;;;;;;5091462;28;20040;-77
2021/07/25 09:08:21;;;;;;;1999.90;999.90;;;40.60;44.60;;;;;;5091355;28;20024;-80
2021/07/25 09:10:49;;;;;;;1999.90;999.90;;;41.10;44.10;;;;;;5089911;28;20032;-79
2021/07/25 09:13:15;;;;;;;1999.90;999.90;;;41.60;44.00;;;;;;5091149;28;20077;-78
2021/07/25 09:15:41;;;;;;;1999.90;999.90;;;41.80;43.60;;;;;;5090287;28;20028;-79
2021/07/25 09:18:07;;;;;;;1999.90;999.90;;;42.00;43.50;;;;;;5089251;28;20415;-80
2021/07/25 09:20:40;;;;;;;1999.90;999.90;;;42.10;43.10;;;;;;5091221;28;20020;-77
2021/07/25 09:23:20;;;;;;;1999.90;999.90;;;41.90;42.70;;;;;;5090818;28;20026;-77
2021/07/25 09:25:57;;;;;;;1999.90;999.90;;;41.70;42.70;;;;;;5090592;28;20020;-78
2021/07/25 09:28:32;;;;;;;1999.90;999.90;;;41.00;42.20;;;;;;5089334;28;20043;-77
2021/07/25 09:31:11;;;;;;;1999.90;999.90;;;40.00;42.20;;;;;;5090593;28;20026;-79
2021/07/25 09:33:37;;;;;;;;;;;39.00;42.70;;;;;;5091283;28;20044;-78
2021/07/25 09:36:09;;;;;;;1999.90;999.90;;;38.40;43.60;;;;;;5089269;28;19951;-78
2021/07/25 09:38:35;;;;;;;1999.90;999.90;;;37.90;43.70;;;;;;5090669;28;20093;-80
2021/07/25 09:41:01;;;;;;;1999.90;999.90;;;38.00;43.90;;;;;;5089509;28;20384;-79
2021/07/25 09:43:27;;;;;;;1999.90;999.90;;;37.80;43.80;;;;;;5089330;28;20028;-77
2021/07/25 09:45:55;;;;;;;1999.90;999.90;;;37.50;43.80;;;;;;5090703;28;20039;-77
2021/07/25 09:48:27;;;;;;;1999.90;999.90;;;37.70;44.10;;;;;;5089375;28;20029;-77
2021/07/25 09:50:55;;;;;;;1999.90;999.90;;;38.20;44.00;;;;;;5090796;28;20103;-78
2021/07/25 09:53:21;;;;;;;;;;;39.10;44.00;;;;;;5090695;28;20026;-77
2021/07/25 09:55:47;;;;;;;1999.90;999.90;;;39.80;44.80;;;;;;5090284;28;20369;-78
2021/07/25 09:58:13;;;;;;;1999.90;999.90;;;40.50;43.80;;;;;;5090383;28;20039;-78
2021/07/25 10:00:43;;;;;;;1999.90;999.90;;;41.30;43.20;;;;;;5090521;28;20099;-78
2021/07/25 10:03:18;;;;;;;1999.90;999.90;;;42.00;42.60;;;;;;5090247;28;20020;-80
2021/07/25 10:05:44;;;;;;;1999.90;999.90;;;42.50;42.20;;;;;;5088786;28;20024;-80
2021/07/25 10:08:17;;;;;;;1999.90;999.90;;;42.70;42.10;;;;;;5090428;28;20029;-80
2021/07/25 10:10:50;;;;;;;1999.90;999.90;;;43.00;41.60;;;;;;5091156;28;20440;-79
2021/07/25 10:13:18;;;;;;;1999.90;999.90;;;43.40;41.20;;;;;;5090593;28;20031;-77
2021/07/25 10:15:53;;;;;;;1999.90;999.90;;;43.60;41.00;;;;;;5090731;28;20062;-78
2021/07/25 10:18:24;;;;;;;1999.90;999.90;;;43.70;40.90;;;;;;5090364;28;20024;-77
2021/07/25 10:21:00;;;;;;;1999.90;999.90;;;43.40;40.50;;;;;;5088935;28;20081;-79
2021/07/25 10:23:33;;;;;;;1999.90;999.90;;;42.90;40.40;;;;;;5090316;28;20028;-76
2021/07/25 10:26:03;;;;;;;1999.90;999.90;;;42.20;40.10;;;;;;5089915;28;20048;-77
2021/07/25 10:28:34;;;;;;;1999.90;999.90;;;41.80;40.60;;;;;;5090988;28;20028;-77
2021/07/25 10:31:00;;;;;;;1999.90;999.90;;;41.50;40.70;;;;;;5093894;28;20055;-78
2021/07/25 10:33:30;;;;;;;1999.90;999.90;;;41.70;41.10;;;;;;5092262;28;20043;-78
2021/07/25 10:35:56;;;;;;;1999.90;999.90;;;42.20;40.70;;;;;;5093839;28;20024;-79
2021/07/25 10:38:22;;;;;;;1999.90;999.90;;;42.00;40.20;;;;;;5093619;28;20020;-79
2021/07/25 10:40:50;;;;;;;1999.90;999.90;;;41.80;40.60;;;;;;5092347;28;20043;-78
2021/07/25 10:43:23;;;;;;;1999.90;999.90;;;42.10;40.60;;;;;;5093845;28;20024;-78
2021/07/25 10:46:14;;;;;;;1999.90;999.90;;;42.70;40.50;;;;;;5094320;28;20412;-79
2021/07/25 10:49:00;;;;;;;1999.90;999.90;;;43.30;40.20;;;;;;5093516;28;20062;-77
2021/07/25 10:51:26;;;;;;;1999.90;999.90;;;42.60;39.50;;;;;;5077901;28;20404;-77
2021/07/25 10:53:52;;;;;;;1999.90;999.90;;;41.60;39.70;;;;;;5091848;28;20127;-79
2021/07/25 10:56:58;;;;;;;1999.90;999.90;;;41.40;40.40;;;;;;5093576;28;20064;-79
2021/07/25 10:59:55;;;;;;;1999.90;999.90;;;42.10;40.50;;;;;;5093177;28;20028;-77
2021/07/25 11:02:21;;;;;;;1999.90;999.90;;;42.80;40.30;;;;;;5091413;28;20516;-79
2021/07/25 11:04:56;;;;;;;1999.90;999.90;;;43.10;40.10;;;;;;5091715;28;20262;-77
2021/07/25 11:07:25;;;;;;;1999.90;999.90;;;43.10;39.60;;;;;;5093135;28;20100;-79
2021/07/25 11:09:57;;;;;;;1999.90;999.90;;;43.00;39.50;;;;;;5093335;28;20050;-81
2021/07/25 11:12:24;;;;;;;1999.90;999.90;;;43.20;39.40;;;;;;5091904;28;20424;-78
2021/07/25 11:14:55;;;;;;;1999.90;999.90;;;43.40;39.50;;;;;;5092897;28;20040;-80
2021/07/25 11:17:46;;;;;;;1999.90;999.90;;;43.60;39.30;;;;;;5092997;28;20031;-79
2021/07/25 11:20:57;;;;;;;1999.90;999.90;;;44.00;39.30;;;;;;5092754;28;20020;-78
2021/07/25 11:23:22;;;;;;;1999.90;999.90;;;43.90;38.60;;;;;;5095167;28;20028;-77
